sensor_id;sensor_type;location;lat;lon;timestamp;P1;durP1;ratioP1;P2;durP2;ratioP2
40953;SDS011;26686;50.130;8.710;2022-08-04T00:03:23;3.08;;;2.20;;
40953;SDS011;26686;50.130;8.710;2022-08-04T00:13:43;3.13;;;2.03;;
40953;SDS011;26686;50.130;8.710;2022-08-04T00:19:02;2.10;;;1.90;;
40953;SDS011;26686;50.130;8.710;2022-08-04T00:24:07;1.90;;;1.80;;
40953;SDS011;26686;50.130;8.710;2022-08-04T00:29:13;2.40;;;1.80;;
40953;SDS011;26686;50.130;8.710;2022-08-04T00:34:15;2.50;;;2.30;;
40953;SDS011;26686;50.130;8.710;2022-08-04T00:39:17;3.33;;;2.20;;
40953;SDS011;26686;50.130;8.710;2022-08-04T00:50:07;2.30;;;2.10;;
40953;SDS011;26686;50.130;8.710;2022-08-04T01:00:37;2.38;;;2.17;;
40953;SDS011;26686;50.130;8.710;2022-08-04T01:11:23;1.98;;;1.88;;
40953;SDS011;26686;50.130;8.710;2022-08-04T01:17:01;2.58;;;2.22;;
40953;SDS011;26686;50.130;8.710;2022-08-04T01:32:36;1.80;;;1.65;;
40953;SDS011;26686;50.130;8.710;2022-08-04T01:43:18;2.45;;;2.05;;
40953;SDS011;26686;50.130;8.710;2022-08-04T01:48:22;2.45;;;2.20;;
40953;SDS011;26686;50.130;8.710;2022-08-04T01:53:29;3.17;;;1.67;;
40953;SDS011;26686;50.130;8.710;2022-08-04T01:58:33;2.28;;;1.95;;
40953;SDS011;26686;50.130;8.710;2022-08-04T02:03:37;2.30;;;1.75;;
40953;SDS011;26686;50.130;8.710;2022-08-04T02:09:10;3.80;;;1.73;;
40953;SDS011;26686;50.130;8.710;2022-08-04T02:14:42;2.07;;;1.43;;
40953;SDS011;26686;50.130;8.710;2022-08-04T02:19:58;4.30;;;2.00;;
40953;SDS011;26686;50.130;8.710;2022-08-04T02:25:07;3.85;;;1.67;;
40953;SDS011;26686;50.130;8.710;2022-08-04T02:30:10;1.70;;;1.40;;
40953;SDS011;26686;50.130;8.710;2022-08-04T02:35:15;2.28;;;1.73;;
40953;SDS011;26686;50.130;8.710;2022-08-04T02:40:29;2.35;;;1.88;;
40953;SDS011;26686;50.130;8.710;2022-08-04T02:45:31;2.03;;;1.83;;
40953;SDS011;26686;50.130;8.710;2022-08-04T02:50:37;2.30;;;2.10;;
40953;SDS011;26686;50.130;8.710;2022-08-04T02:55:40;2.10;;;1.88;;
40953;SDS011;26686;50.130;8.710;2022-08-04T03:00:51;3.00;;;1.90;;
40953;SDS011;26686;50.130;8.710;2022-08-04T03:16:59;2.95;;;2.33;;
40953;SDS011;26686;50.130;8.710;2022-08-04T03:22:40;4.95;;;1.92;;
40953;SDS011;26686;50.130;8.710;2022-08-04T03:39:30;2.08;;;1.73;;
40953;SDS011;26686;50.130;8.710;2022-08-04T03:55:52;2.72;;;2.05;;
40953;SDS011;26686;50.130;8.710;2022-08-04T04:12:35;3.40;;;2.35;;
40953;SDS011;26686;50.130;8.710;2022-08-04T04:23:33;2.50;;;2.30;;
40953;SDS011;26686;50.130;8.710;2022-08-04T04:28:47;3.78;;;2.05;;
40953;SDS011;26686;50.130;8.710;2022-08-04T04:34:12;2.72;;;2.38;;
40953;SDS011;26686;50.130;8.710;2022-08-04T04:39:37;4.47;;;2.38;;
40953;SDS011;26686;50.130;8.710;2022-08-04T04:45:00;2.42;;;2.22;;
40953;SDS011;26686;50.130;8.710;2022-08-04T04:55:39;3.33;;;2.55;;
40953;SDS011;26686;50.130;8.710;2022-08-04T05:01:02;5.45;;;2.78;;
40953;SDS011;26686;50.130;8.710;2022-08-04T05:27:19;6.60;;;2.50;;
40953;SDS011;26686;50.130;8.710;2022-08-04T05:32:35;2.75;;;2.50;;
40953;SDS011;26686;50.130;8.710;2022-08-04T05:37:43;3.38;;;2.58;;
40953;SDS011;26686;50.130;8.710;2022-08-04T05:43:01;5.28;;;2.30;;
40953;SDS011;26686;50.130;8.710;2022-08-04T05:48:04;5.53;;;2.80;;
40953;SDS011;26686;50.130;8.710;2022-08-04T05:53:08;16.52;;;3.25;;
40953;SDS011;26686;50.130;8.710;2022-08-04T05:58:11;11.05;;;3.22;;
40953;SDS011;26686;50.130;8.710;2022-08-04T06:03:14;4.88;;;2.25;;
40953;SDS011;26686;50.130;8.710;2022-08-04T06:08:19;6.13;;;2.83;;
40953;SDS011;26686;50.130;8.710;2022-08-04T06:13:24;3.97;;;2.33;;
40953;SDS011;26686;50.130;8.710;2022-08-04T06:18:49;4.78;;;2.55;;
40953;SDS011;26686;50.130;8.710;2022-08-04T06:24:15;6.15;;;2.50;;
40953;SDS011;26686;50.130;8.710;2022-08-04T06:29:20;6.75;;;2.30;;
40953;SDS011;26686;50.130;8.710;2022-08-04T06:34:36;3.85;;;2.05;;
40953;SDS011;26686;50.130;8.710;2022-08-04T06:39:38;5.20;;;2.42;;
40953;SDS011;26686;50.130;8.710;2022-08-04T06:44:43;3.35;;;1.92;;
40953;SDS011;26686;50.130;8.710;2022-08-04T06:49:52;3.20;;;1.92;;
40953;SDS011;26686;50.130;8.710;2022-08-04T06:55:15;4.78;;;2.20;;
40953;SDS011;26686;50.130;8.710;2022-08-04T07:00:16;4.60;;;2.50;;
40953;SDS011;26686;50.130;8.710;2022-08-04T07:05:18;2.50;;;2.30;;
40953;SDS011;26686;50.130;8.710;2022-08-04T07:15:26;5.32;;;2.30;;
40953;SDS011;26686;50.130;8.710;2022-08-04T07:20:29;3.45;;;2.72;;
40953;SDS011;26686;50.130;8.710;2022-08-04T07:25:36;2.28;;;2.08;;
40953;SDS011;26686;50.130;8.710;2022-08-04T07:30:57;5.47;;;2.60;;
40953;SDS011;26686;50.130;8.710;2022-08-04T07:35:59;5.45;;;2.65;;
40953;SDS011;26686;50.130;8.710;2022-08-04T07:41:11;6.72;;;3.13;;
40953;SDS011;26686;50.130;8.710;2022-08-04T07:46:34;5.45;;;2.22;;
40953;SDS011;26686;50.130;8.710;2022-08-04T07:51:38;3.80;;;2.70;;
40953;SDS011;26686;50.130;8.710;2022-08-04T07:56:40;4.55;;;2.85;;
40953;SDS011;26686;50.130;8.710;2022-08-04T08:01:43;5.43;;;2.03;;
40953;SDS011;26686;50.130;8.710;2022-08-04T08:06:46;7.43;;;3.28;;
40953;SDS011;26686;50.130;8.710;2022-08-04T08:11:49;2.30;;;2.10;;
40953;SDS011;26686;50.130;8.710;2022-08-04T08:17:12;5.60;;;2.58;;
40953;SDS011;26686;50.130;8.710;2022-08-04T08:22:13;6.35;;;2.03;;
40953;SDS011;26686;50.130;8.710;2022-08-04T08:27:15;3.45;;;2.15;;
40953;SDS011;26686;50.130;8.710;2022-08-04T08:32:16;6.10;;;2.00;;
40953;SDS011;26686;50.130;8.710;2022-08-04T08:37:25;4.97;;;2.00;;
40953;SDS011;26686;50.130;8.710;2022-08-04T08:53:22;3.40;;;2.28;;
40953;SDS011;26686;50.130;8.710;2022-08-04T09:20:36;2.55;;;2.00;;
40953;SDS011;26686;50.130;8.710;2022-08-04T09:26:18;5.45;;;2.40;;
40953;SDS011;26686;50.130;8.710;2022-08-04T09:31:20;4.20;;;2.85;;
40953;SDS011;26686;50.130;8.710;2022-08-04T09:42:21;3.67;;;2.35;;
40953;SDS011;26686;50.130;8.710;2022-08-04T09:47:36;4.30;;;2.20;;
40953;SDS011;26686;50.130;8.710;2022-08-04T09:57:56;2.55;;;2.30;;
40953;SDS011;26686;50.130;8.710;2022-08-04T10:03:09;4.15;;;1.77;;
40953;SDS011;26686;50.130;8.710;2022-08-04T10:19:38;2.55;;;1.90;;
40953;SDS011;26686;50.130;8.710;2022-08-04T10:29:57;5.07;;;1.98;;
40953;SDS011;26686;50.130;8.710;2022-08-04T10:35:08;2.63;;;1.73;;
40953;SDS011;26686;50.130;8.710;2022-08-04T10:40:16;1.98;;;1.50;;
40953;SDS011;26686;50.130;8.710;2022-08-04T10:45:45;2.17;;;1.77;;
40953;SDS011;26686;50.130;8.710;2022-08-04T10:51:03;2.88;;;1.95;;
40953;SDS011;26686;50.130;8.710;2022-08-04T10:56:17;2.10;;;1.80;;
40953;SDS011;26686;50.130;8.710;2022-08-04T11:01:23;2.00;;;1.35;;
40953;SDS011;26686;50.130;8.710;2022-08-04T11:06:49;2.03;;;1.65;;
40953;SDS011;26686;50.130;8.710;2022-08-04T11:11:55;2.10;;;1.15;;
40953;SDS011;26686;50.130;8.710;2022-08-04T11:17:04;3.07;;;1.50;;
40953;SDS011;26686;50.130;8.710;2022-08-04T11:22:08;1.75;;;1.35;;
40953;SDS011;26686;50.130;8.710;2022-08-04T11:27:14;2.08;;;1.10;;
40953;SDS011;26686;50.130;8.710;2022-08-04T11:32:46;2.25;;;0.90;;
40953;SDS011;26686;50.130;8.710;2022-08-04T11:37:51;1.10;;;0.90;;
40953;SDS011;26686;50.130;8.710;2022-08-04T11:43:07;1.75;;;0.85;;
40953;SDS011;26686;50.130;8.710;2022-08-04T11:48:18;3.55;;;0.90;;
40953;SDS011;26686;50.130;8.710;2022-08-04T11:53:25;3.17;;;0.90;;
40953;SDS011;26686;50.130;8.710;2022-08-04T11:58:37;1.88;;;0.80;;
40953;SDS011;26686;50.130;8.710;2022-08-04T12:03:45;1.63;;;0.57;;
40953;SDS011;26686;50.130;8.710;2022-08-04T12:09:11;2.80;;;0.77;;
40953;SDS011;26686;50.130;8.710;2022-08-04T12:14:45;1.92;;;0.43;;
40953;SDS011;26686;50.130;8.710;2022-08-04T12:19:56;1.40;;;0.88;;
40953;SDS011;26686;50.130;8.710;2022-08-04T12:25:09;2.25;;;0.65;;
40953;SDS011;26686;50.130;8.710;2022-08-04T12:30:15;1.73;;;0.40;;
40953;SDS011;26686;50.130;8.710;2022-08-04T12:35:43;1.95;;;0.70;;
40953;SDS011;26686;50.130;8.710;2022-08-04T12:41:10;1.60;;;0.55;;
40953;SDS011;26686;50.130;8.710;2022-08-04T12:46:22;3.15;;;0.40;;
40953;SDS011;26686;50.130;8.710;2022-08-04T12:51:26;1.65;;;0.50;;
40953;SDS011;26686;50.130;8.710;2022-08-04T12:56:48;3.65;;;0.80;;
40953;SDS011;26686;50.130;8.710;2022-08-04T13:01:51;1.40;;;0.40;;
40953;SDS011;26686;50.130;8.710;2022-08-04T13:07:12;1.77;;;0.55;;
40953;SDS011;26686;50.130;8.710;2022-08-04T13:12:25;2.80;;;0.65;;
40953;SDS011;26686;50.130;8.710;2022-08-04T13:17:49;1.52;;;0.68;;
40953;SDS011;26686;50.130;8.710;2022-08-04T13:23:14;1.55;;;0.60;;
40953;SDS011;26686;50.130;8.710;2022-08-04T13:28:23;3.72;;;1.10;;
40953;SDS011;26686;50.130;8.710;2022-08-04T13:33:30;2.33;;;1.02;;
40953;SDS011;26686;50.130;8.710;2022-08-04T13:38:35;3.65;;;1.17;;
40953;SDS011;26686;50.130;8.710;2022-08-04T13:43:55;2.47;;;0.90;;
40953;SDS011;26686;50.130;8.710;2022-08-04T13:49:19;2.38;;;0.70;;
40953;SDS011;26686;50.130;8.710;2022-08-04T13:54:42;9.07;;;2.03;;
40953;SDS011;26686;50.130;8.710;2022-08-04T13:59:52;2.78;;;0.70;;
40953;SDS011;26686;50.130;8.710;2022-08-04T14:05:01;2.35;;;0.60;;
40953;SDS011;26686;50.130;8.710;2022-08-04T14:10:19;2.55;;;0.70;;
40953;SDS011;26686;50.130;8.710;2022-08-04T14:26:20;1.52;;;0.60;;
40953;SDS011;26686;50.130;8.710;2022-08-04T14:31:33;1.77;;;0.80;;
40953;SDS011;26686;50.130;8.710;2022-08-04T14:36:39;1.55;;;0.93;;
40953;SDS011;26686;50.130;8.710;2022-08-04T14:42:02;1.00;;;0.70;;
40953;SDS011;26686;50.130;8.710;2022-08-04T14:47:04;1.13;;;0.60;;
40953;SDS011;26686;50.130;8.710;2022-08-04T14:52:21;1.20;;;0.90;;
40953;SDS011;26686;50.130;8.710;2022-08-04T14:57:25;1.83;;;0.82;;
40953;SDS011;26686;50.130;8.710;2022-08-04T15:02:27;1.13;;;0.90;;
40953;SDS011;26686;50.130;8.710;2022-08-04T15:07:30;2.95;;;0.82;;
40953;SDS011;26686;50.130;8.710;2022-08-04T15:12:32;0.90;;;0.80;;
40953;SDS011;26686;50.130;8.710;2022-08-04T15:17:33;1.23;;;0.73;;
40953;SDS011;26686;50.130;8.710;2022-08-04T15:22:35;2.00;;;0.93;;
40953;SDS011;26686;50.130;8.710;2022-08-04T15:27:37;2.22;;;0.90;;
40953;SDS011;26686;50.130;8.710;2022-08-04T15:32:42;2.05;;;1.00;;
40953;SDS011;26686;50.130;8.710;2022-08-04T15:53:13;1.95;;;1.05;;
40953;SDS011;26686;50.130;8.710;2022-08-04T15:58:23;5.43;;;1.40;;
40953;SDS011;26686;50.130;8.710;2022-08-04T16:19:08;2.13;;;0.88;;
40953;SDS011;26686;50.130;8.710;2022-08-04T16:29:43;2.83;;;0.90;;
40953;SDS011;26686;50.130;8.710;2022-08-04T16:34:46;2.95;;;1.30;;
40953;SDS011;26686;50.130;8.710;2022-08-04T16:40:38;1.38;;;0.90;;
40953;SDS011;26686;50.130;8.710;2022-08-04T16:45:51;1.65;;;0.65;;
40953;SDS011;26686;50.130;8.710;2022-08-04T16:55:56;2.60;;;0.90;;
40953;SDS011;26686;50.130;8.710;2022-08-04T17:01:04;2.10;;;1.23;;
40953;SDS011;26686;50.130;8.710;2022-08-04T17:06:10;3.28;;;0.95;;
40953;SDS011;26686;50.130;8.710;2022-08-04T17:11:14;2.13;;;0.88;;
40953;SDS011;26686;50.130;8.710;2022-08-04T17:16:17;2.10;;;1.02;;
40953;SDS011;26686;50.130;8.710;2022-08-04T17:21:22;1.73;;;0.88;;
40953;SDS011;26686;50.130;8.710;2022-08-04T17:26:26;2.85;;;1.05;;
40953;SDS011;26686;50.130;8.710;2022-08-04T17:31:41;1.80;;;0.95;;
40953;SDS011;26686;50.130;8.710;2022-08-04T17:36:43;1.25;;;0.70;;
40953;SDS011;26686;50.130;8.710;2022-08-04T17:41:45;2.72;;;1.02;;
40953;SDS011;26686;50.130;8.710;2022-08-04T17:46:49;3.53;;;1.02;;
40953;SDS011;26686;50.130;8.710;2022-08-04T17:57:14;1.33;;;1.00;;
40953;SDS011;26686;50.130;8.710;2022-08-04T18:02:21;1.48;;;0.85;;
40953;SDS011;26686;50.130;8.710;2022-08-04T18:07:34;3.17;;;1.27;;
40953;SDS011;26686;50.130;8.710;2022-08-04T18:13:04;3.13;;;0.95;;
40953;SDS011;26686;50.130;8.710;2022-08-04T18:18:19;2.50;;;1.23;;
40953;SDS011;26686;50.130;8.710;2022-08-04T18:23:24;3.13;;;1.50;;
40953;SDS011;26686;50.130;8.710;2022-08-04T18:28:32;2.35;;;1.30;;
40953;SDS011;26686;50.130;8.710;2022-08-04T18:33:34;3.03;;;0.98;;
40953;SDS011;26686;50.130;8.710;2022-08-04T18:38:41;1.25;;;0.85;;
40953;SDS011;26686;50.130;8.710;2022-08-04T18:43:59;3.22;;;1.10;;
40953;SDS011;26686;50.130;8.710;2022-08-04T18:49:03;3.00;;;1.13;;
40953;SDS011;26686;50.130;8.710;2022-08-04T18:59:08;2.97;;;1.35;;
40953;SDS011;26686;50.130;8.710;2022-08-04T19:04:10;1.58;;;0.75;;
40953;SDS011;26686;50.130;8.710;2022-08-04T19:09:32;2.78;;;0.77;;
40953;SDS011;26686;50.130;8.710;2022-08-04T19:14:52;2.92;;;0.98;;
40953;SDS011;26686;50.130;8.710;2022-08-04T19:20:08;3.28;;;1.17;;
40953;SDS011;26686;50.130;8.710;2022-08-04T19:25:24;5.32;;;3.47;;
40953;SDS011;26686;50.130;8.710;2022-08-04T19:30:46;4.57;;;2.53;;
40953;SDS011;26686;50.130;8.710;2022-08-04T19:35:48;3.97;;;1.90;;
40953;SDS011;26686;50.130;8.710;2022-08-04T19:40:51;5.30;;;1.40;;
40953;SDS011;26686;50.130;8.710;2022-08-04T19:45:53;3.58;;;1.45;;
40953;SDS011;26686;50.130;8.710;2022-08-04T19:50:55;6.57;;;1.70;;
40953;SDS011;26686;50.130;8.710;2022-08-04T19:55:58;3.80;;;1.45;;
40953;SDS011;26686;50.130;8.710;2022-08-04T20:01:00;3.88;;;1.50;;
40953;SDS011;26686;50.130;8.710;2022-08-04T20:06:01;2.08;;;1.00;;
40953;SDS011;26686;50.130;8.710;2022-08-04T20:11:03;1.52;;;1.10;;
40953;SDS011;26686;50.130;8.710;2022-08-04T20:16:11;2.15;;;1.13;;
40953;SDS011;26686;50.130;8.710;2022-08-04T20:21:31;2.42;;;1.65;;
40953;SDS011;26686;50.130;8.710;2022-08-04T20:26:53;2.72;;;1.50;;
40953;SDS011;26686;50.130;8.710;2022-08-04T20:31:54;3.80;;;1.55;;
40953;SDS011;26686;50.130;8.710;2022-08-04T20:37:05;4.13;;;1.60;;
40953;SDS011;26686;50.130;8.710;2022-08-04T20:42:10;2.83;;;1.40;;
40953;SDS011;26686;50.130;8.710;2022-08-04T20:47:12;1.85;;;1.33;;
40953;SDS011;26686;50.130;8.710;2022-08-04T20:52:14;5.03;;;1.15;;
40953;SDS011;26686;50.130;8.710;2022-08-04T20:57:20;4.57;;;1.38;;
40953;SDS011;26686;50.130;8.710;2022-08-04T21:02:42;3.10;;;1.30;;
40953;SDS011;26686;50.130;8.710;2022-08-04T21:07:44;4.60;;;1.48;;
40953;SDS011;26686;50.130;8.710;2022-08-04T21:12:49;3.35;;;2.00;;
40953;SDS011;26686;50.130;8.710;2022-08-04T21:17:52;5.07;;;2.00;;
40953;SDS011;26686;50.130;8.710;2022-08-04T21:23:04;4.10;;;1.80;;
40953;SDS011;26686;50.130;8.710;2022-08-04T21:28:07;3.97;;;1.55;;
40953;SDS011;26686;50.130;8.710;2022-08-04T21:33:08;5.47;;;1.53;;
40953;SDS011;26686;50.130;8.710;2022-08-04T21:38:10;11.60;;;2.93;;
40953;SDS011;26686;50.130;8.710;2022-08-04T21:43:17;4.53;;;1.80;;
40953;SDS011;26686;50.130;8.710;2022-08-04T21:48:20;4.40;;;2.50;;
40953;SDS011;26686;50.130;8.710;2022-08-04T21:53:21;6.63;;;2.67;;
40953;SDS011;26686;50.130;8.710;2022-08-04T21:58:27;4.07;;;1.77;;
40953;SDS011;26686;50.130;8.710;2022-08-04T22:03:43;5.20;;;2.13;;
40953;SDS011;26686;50.130;8.710;2022-08-04T22:08:54;7.28;;;2.03;;
40953;SDS011;26686;50.130;8.710;2022-08-04T22:14:00;5.15;;;1.80;;
40953;SDS011;26686;50.130;8.710;2022-08-04T22:19:11;4.82;;;2.05;;
40953;SDS011;26686;50.130;8.710;2022-08-04T22:24:13;2.63;;;1.38;;
40953;SDS011;26686;50.130;8.710;2022-08-04T22:29:15;3.33;;;1.70;;
40953;SDS011;26686;50.130;8.710;2022-08-04T22:34:18;7.03;;;2.47;;
40953;SDS011;26686;50.130;8.710;2022-08-04T22:39:23;7.70;;;2.17;;
40953;SDS011;26686;50.130;8.710;2022-08-04T22:44:28;5.55;;;1.90;;
40953;SDS011;26686;50.130;8.710;2022-08-04T22:49:34;4.97;;;1.80;;
40953;SDS011;26686;50.130;8.710;2022-08-04T22:54:37;4.55;;;1.67;;
40953;SDS011;26686;50.130;8.710;2022-08-04T22:59:40;3.45;;;1.67;;
40953;SDS011;26686;50.130;8.710;2022-08-04T23:04:43;7.00;;;2.03;;
40953;SDS011;26686;50.130;8.710;2022-08-04T23:09:50;5.47;;;1.75;;
40953;SDS011;26686;50.130;8.710;2022-08-04T23:14:52;5.13;;;1.90;;
40953;SDS011;26686;50.130;8.710;2022-08-04T23:19:55;6.10;;;2.25;;
40953;SDS011;26686;50.130;8.710;2022-08-04T23:25:00;3.75;;;1.92;;
40953;SDS011;26686;50.130;8.710;2022-08-04T23:30:04;4.45;;;1.80;;
40953;SDS011;26686;50.130;8.710;2022-08-04T23:35:06;3.72;;;1.50;;
40953;SDS011;26686;50.130;8.710;2022-08-04T23:40:09;3.35;;;1.77;;
40953;SDS011;26686;50.130;8.710;2022-08-04T23:45:31;5.20;;;1.83;;
40953;SDS011;26686;50.130;8.710;2022-08-04T23:50:52;3.72;;;1.70;;
40953;SDS011;26686;50.130;8.710;2022-08-04T23:55:54;4.90;;;1.90;;
